sensor_id;sensor_type;location;lat;lon;timestamp;pressure;altitude;pressure_sealevel;temperature;humidity
53719;BME280;39616;48.872;9.390;2023-05-12T00:01:41;98054.84;;;9.18;100.00
53719;BME280;39616;48.872;9.390;2023-05-12T00:04:11;98049.53;;;9.13;100.00
53719;BME280;39616;48.872;9.390;2023-05-12T00:06:41;98050.91;;;9.11;100.00
53719;BME280;39616;48.872;9.390;2023-05-12T00:09:12;98049.81;;;9.12;100.00
53719;BME280;39616;48.872;9.390;2023-05-12T00:11:42;98045.72;;;9.14;100.00
53719;BME280;39616;48.872;9.390;2023-05-12T00:14:12;98042.50;;;9.12;100.00
53719;BME280;39616;48.872;9.390;2023-05-12T00:16:43;98046.00;;;9.13;100.00
53719;BME280;39616;48.872;9.390;2023-05-12T00:19:13;98042.81;;;9.11;100.00
53719;BME280;39616;48.872;9.390;2023-05-12T00:21:43;98046.88;;;9.08;100.00
53719;BME280;39616;48.872;9.390;2023-05-12T00:24:13;98043.97;;;9.05;100.00
53719;BME280;39616;48.872;9.390;2023-05-12T00:26:44;98046.75;;;9.00;100.00
53719;BME280;39616;48.872;9.390;2023-05-12T00:29:14;98042.72;;;8.97;100.00
53719;BME280;39616;48.872;9.390;2023-05-12T00:31:44;98038.69;;;8.94;100.00
53719;BME280;39616;48.872;9.390;2023-05-12T00:34:15;98038.69;;;8.94;100.00
53719;BME280;39616;48.872;9.390;2023-05-12T00:36:45;98029.78;;;8.94;100.00
53719;BME280;39616;48.872;9.390;2023-05-12T00:39:15;98037.69;;;8.90;100.00
53719;BME280;39616;48.872;9.390;2023-05-12T00:41:45;98036.88;;;8.90;100.00
53719;BME280;39616;48.872;9.390;2023-05-12T00:44:16;98033.16;;;8.86;100.00
53719;BME280;39616;48.872;9.390;2023-05-12T00:46:48;98027.53;;;8.82;100.00
53719;BME280;39616;48.872;9.390;2023-05-12T00:49:19;98042.41;;;8.80;100.00
53719;BME280;39616;48.872;9.390;2023-05-12T00:51:49;98031.03;;;8.83;100.00
53719;BME280;39616;48.872;9.390;2023-05-12T00:54:20;98032.88;;;8.87;100.00
53719;BME280;39616;48.872;9.390;2023-05-12T00:56:51;98035.59;;;8.87;100.00
53719;BME280;39616;48.872;9.390;2023-05-12T00:59:22;98038.28;;;8.87;100.00
53719;BME280;39616;48.872;9.390;2023-05-12T01:01:52;98035.06;;;8.85;100.00
53719;BME280;39616;48.872;9.390;2023-05-12T01:04:22;98030.00;;;8.79;100.00
53719;BME280;39616;48.872;9.390;2023-05-12T01:06:55;98039.22;;;8.78;100.00
53719;BME280;39616;48.872;9.390;2023-05-12T01:09:27;98034.03;;;8.81;100.00
53719;BME280;39616;48.872;9.390;2023-05-12T01:11:57;98035.59;;;8.87;100.00
53719;BME280;39616;48.872;9.390;2023-05-12T01:14:27;98040.47;;;8.85;100.00
53719;BME280;39616;48.872;9.390;2023-05-12T01:16:59;98033.25;;;8.81;100.00
53719;BME280;39616;48.872;9.390;2023-05-12T01:22:08;98035.50;;;8.74;100.00
53719;BME280;39616;48.872;9.390;2023-05-12T01:24:56;98029.56;;;8.71;100.00
53719;BME280;39616;48.872;9.390;2023-05-12T01:27:27;98034.38;;;8.75;100.00
53719;BME280;39616;48.872;9.390;2023-05-12T01:30:00;98028.75;;;8.71;100.00
53719;BME280;39616;48.872;9.390;2023-05-12T01:32:32;98030.66;;;8.70;100.00
53719;BME280;39616;48.872;9.390;2023-05-12T01:35:02;98030.97;;;8.69;100.00
53719;BME280;39616;48.872;9.390;2023-05-12T01:37:33;98027.75;;;8.67;100.00
53719;BME280;39616;48.872;9.390;2023-05-12T01:40:03;98025.03;;;8.67;100.00
53719;BME280;39616;48.872;9.390;2023-05-12T01:42:34;98025.56;;;8.69;100.00
53719;BME280;39616;48.872;9.390;2023-05-12T01:45:05;98027.16;;;8.70;100.00
53719;BME280;39616;48.872;9.390;2023-05-12T01:47:35;98027.66;;;8.72;100.00
53719;BME280;39616;48.872;9.390;2023-05-12T01:50:06;98032.34;;;8.66;100.00
53719;BME280;39616;48.872;9.390;2023-05-12T01:52:36;98031.31;;;8.62;100.00
53719;BME280;39616;48.872;9.390;2023-05-12T01:55:07;98031.94;;;8.54;100.00
53719;BME280;39616;48.872;9.390;2023-05-12T01:57:38;98039.31;;;8.49;100.00
53719;BME280;39616;48.872;9.390;2023-05-12T02:00:08;98039.63;;;8.47;100.00
53719;BME280;39616;48.872;9.390;2023-05-12T02:02:39;98031.00;;;8.45;100.00
53719;BME280;39616;48.872;9.390;2023-05-12T02:05:10;98029.63;;;8.48;100.00
53719;BME280;39616;48.872;9.390;2023-05-12T02:07:41;98035.28;;;8.46;100.00
53719;BME280;39616;48.872;9.390;2023-05-12T02:10:11;98031.53;;;8.47;100.00
53719;BME280;39616;48.872;9.390;2023-05-12T02:12:42;98030.91;;;8.50;100.00
53719;BME280;39616;48.872;9.390;2023-05-12T02:15:12;98036.31;;;8.50;100.00
53719;BME280;39616;48.872;9.390;2023-05-12T02:17:42;98027.72;;;8.48;100.00
53719;BME280;39616;48.872;9.390;2023-05-12T02:20:13;98032.31;;;8.48;100.00
53719;BME280;39616;48.872;9.390;2023-05-12T02:22:43;98034.72;;;8.49;100.00
53719;BME280;39616;48.872;9.390;2023-05-12T02:25:14;98037.44;;;8.49;100.00
53719;BME280;39616;48.872;9.390;2023-05-12T02:27:44;98034.72;;;8.49;100.00
53719;BME280;39616;48.872;9.390;2023-05-12T02:30:14;98033.84;;;8.54;100.00
53719;BME280;39616;48.872;9.390;2023-05-12T02:32:45;98031.09;;;8.59;100.00
53719;BME280;39616;48.872;9.390;2023-05-12T02:35:15;98040.59;;;8.56;100.00
53719;BME280;39616;48.872;9.390;2023-05-12T02:37:45;98033.00;;;8.58;100.00
53719;BME280;39616;48.872;9.390;2023-05-12T02:40:18;98034.16;;;8.52;100.00
53719;BME280;39616;48.872;9.390;2023-05-12T02:42:49;98028.22;;;8.50;100.00
53719;BME280;39616;48.872;9.390;2023-05-12T02:45:19;98031.22;;;8.49;100.00
53719;BME280;39616;48.872;9.390;2023-05-12T02:47:49;98030.69;;;8.46;100.00
53719;BME280;39616;48.872;9.390;2023-05-12T02:50:20;98033.13;;;8.48;100.00
53719;BME280;39616;48.872;9.390;2023-05-12T02:52:50;98026.53;;;8.54;100.00
53719;BME280;39616;48.872;9.390;2023-05-12T02:55:21;98024.13;;;8.53;100.00
53719;BME280;39616;48.872;9.390;2023-05-12T02:57:51;98020.06;;;8.55;100.00
53719;BME280;39616;48.872;9.390;2023-05-12T03:00:22;98021.88;;;8.60;100.00
53719;BME280;39616;48.872;9.390;2023-05-12T03:02:52;98024.50;;;8.65;100.00
53719;BME280;39616;48.872;9.390;2023-05-12T03:05:22;98025.03;;;8.67;100.00
53719;BME280;39616;48.872;9.390;2023-05-12T03:07:53;98024.50;;;8.65;100.00
53719;BME280;39616;48.872;9.390;2023-05-12T03:10:23;98025.63;;;8.64;100.00
53719;BME280;39616;48.872;9.390;2023-05-12T03:12:54;98026.13;;;8.66;100.00
53719;BME280;39616;48.872;9.390;2023-05-12T03:15:24;98030.13;;;8.68;100.00
53719;BME280;39616;48.872;9.390;2023-05-12T03:17:54;98027.75;;;8.67;100.00
53719;BME280;39616;48.872;9.390;2023-05-12T03:20:25;98032.84;;;8.68;100.00
53719;BME280;39616;48.872;9.390;2023-05-12T03:22:55;98036.16;;;8.65;100.00
53719;BME280;39616;48.872;9.390;2023-05-12T03:25:26;98034.03;;;8.62;100.00
53719;BME280;39616;48.872;9.390;2023-05-12T03:27:56;98033.44;;;8.65;100.00
53719;BME280;39616;48.872;9.390;2023-05-12T03:30:26;98032.63;;;8.65;100.00
53719;BME280;39616;48.872;9.390;2023-05-12T03:32:57;98036.94;;;8.66;100.00
53719;BME280;39616;48.872;9.390;2023-05-12T03:35:27;98030.75;;;8.65;100.00
53719;BME280;39616;48.872;9.390;2023-05-12T03:37:57;98029.06;;;8.69;100.00
53719;BME280;39616;48.872;9.390;2023-05-12T03:40:27;98029.34;;;8.68;100.00
53719;BME280;39616;48.872;9.390;2023-05-12T03:42:58;98027.66;;;8.72;100.00
53719;BME280;39616;48.872;9.390;2023-05-12T03:45:28;98026.84;;;8.71;100.00
53719;BME280;39616;48.872;9.390;2023-05-12T03:47:58;98024.72;;;8.68;100.00
53719;BME280;39616;48.872;9.390;2023-05-12T03:50:28;98028.28;;;8.69;100.00
53719;BME280;39616;48.872;9.390;2023-05-12T03:52:59;98033.06;;;8.72;100.00
53719;BME280;39616;48.872;9.390;2023-05-12T03:55:30;98025.69;;;8.78;100.00
53719;BME280;39616;48.872;9.390;2023-05-12T03:58:00;98027.59;;;8.77;100.00
53719;BME280;39616;48.872;9.390;2023-05-12T04:00:30;98033.25;;;8.81;100.00
53719;BME280;39616;48.872;9.390;2023-05-12T04:03:01;98030.22;;;8.82;100.00
53719;BME280;39616;48.872;9.390;2023-05-12T04:05:32;98028.06;;;8.84;100.00
53719;BME280;39616;48.872;9.390;2023-05-12T04:08:02;98025.03;;;8.86;100.00
53719;BME280;39616;48.872;9.390;2023-05-12T04:10:37;98022.88;;;8.88;100.00
53719;BME280;39616;48.872;9.390;2023-05-12T04:13:08;98019.84;;;8.89;100.00
53719;BME280;39616;48.872;9.390;2023-05-12T04:15:38;98023.78;;;8.97;100.00
53719;BME280;39616;48.872;9.390;2023-05-12T04:18:08;98023.44;;;9.04;100.00
53719;BME280;39616;48.872;9.390;2023-05-12T04:20:39;98024.75;;;9.06;100.00
53719;BME280;39616;48.872;9.390;2023-05-12T04:23:09;98019.25;;;9.11;100.00
53719;BME280;39616;48.872;9.390;2023-05-12T04:25:41;98015.16;;;9.14;100.00
53719;BME280;39616;48.872;9.390;2023-05-12T04:28:11;98013.47;;;9.18;100.00
53719;BME280;39616;48.872;9.390;2023-05-12T04:30:42;98014.81;;;9.21;100.00
53719;BME280;39616;48.872;9.390;2023-05-12T04:33:12;98015.59;;;9.21;100.00
53719;BME280;39616;48.872;9.390;2023-05-12T04:35:42;98023.72;;;9.21;100.00
53719;BME280;39616;48.872;9.390;2023-05-12T04:38:13;98023.72;;;9.21;100.00
53719;BME280;39616;48.872;9.390;2023-05-12T04:40:43;98025.41;;;9.17;100.00
53719;BME280;39616;48.872;9.390;2023-05-12T04:43:13;98034.81;;;9.19;100.00
53719;BME280;39616;48.872;9.390;2023-05-12T04:45:44;98040.22;;;9.19;100.00
53719;BME280;39616;48.872;9.390;2023-05-12T04:48:14;98045.06;;;9.23;100.00
53719;BME280;39616;48.872;9.390;2023-05-12T04:50:45;98046.06;;;9.27;100.00
53719;BME280;39616;48.872;9.390;2023-05-12T04:53:16;98042.47;;;9.31;100.00
53719;BME280;39616;48.872;9.390;2023-05-12T04:55:46;98044.53;;;9.39;100.00
53719;BME280;39616;48.872;9.390;2023-05-12T04:58:19;98047.94;;;9.45;100.00
53719;BME280;39616;48.872;9.390;2023-05-12T05:00:49;98045.97;;;9.51;100.00
53719;BME280;39616;48.872;9.390;2023-05-12T05:03:19;98046.41;;;9.58;100.00
53719;BME280;39616;48.872;9.390;2023-05-12T05:05:50;98058.72;;;9.64;100.00
53719;BME280;39616;48.872;9.390;2023-05-12T05:08:20;98047.41;;;9.62;100.00
53719;BME280;39616;48.872;9.390;2023-05-12T05:10:50;98049.22;;;9.66;100.00
53719;BME280;39616;48.872;9.390;2023-05-12T05:13:21;98050.75;;;9.73;100.00
53719;BME280;39616;48.872;9.390;2023-05-12T05:15:52;98056.38;;;9.76;100.00
53719;BME280;39616;48.872;9.390;2023-05-12T05:18:23;98052.25;;;9.79;100.00
53719;BME280;39616;48.872;9.390;2023-05-12T05:20:54;98055.47;;;9.81;100.00
53719;BME280;39616;48.872;9.390;2023-05-12T05:23:25;98059.78;;;9.82;100.00
53719;BME280;39616;48.872;9.390;2023-05-12T05:25:55;98062.22;;;9.83;100.00
53719;BME280;39616;48.872;9.390;2023-05-12T05:28:25;98060.00;;;9.85;100.00
53719;BME280;39616;48.872;9.390;2023-05-12T05:30:56;98060.19;;;9.89;100.00
53719;BME280;39616;48.872;9.390;2023-05-12T05:33:26;98062.22;;;9.97;100.00
53719;BME280;39616;48.872;9.390;2023-05-12T05:35:56;98053.00;;;9.98;100.00
53719;BME280;39616;48.872;9.390;2023-05-12T05:38:27;98056.53;;;9.99;100.00
53719;BME280;39616;48.872;9.390;2023-05-12T05:40:57;98060.31;;;9.98;100.00
53719;BME280;39616;48.872;9.390;2023-05-12T05:43:27;98056.09;;;9.91;100.00
53719;BME280;39616;48.872;9.390;2023-05-12T05:45:59;98060.09;;;9.94;100.00
53719;BME280;39616;48.872;9.390;2023-05-12T05:48:29;98063.53;;;10.00;100.00
53719;BME280;39616;48.872;9.390;2023-05-12T05:51:00;98059.34;;;10.07;100.00
53719;BME280;39616;48.872;9.390;2023-05-12T05:53:30;98059.22;;;10.12;100.00
53719;BME280;39616;48.872;9.390;2023-05-12T05:56:00;98056.50;;;10.12;100.00
53719;BME280;39616;48.872;9.390;2023-05-12T05:58:31;98063.25;;;10.15;100.00
53719;BME280;39616;48.872;9.390;2023-05-12T06:01:01;98060.47;;;10.20;100.00
53719;BME280;39616;48.872;9.390;2023-05-12T06:03:31;98059.56;;;10.25;100.00
53719;BME280;39616;48.872;9.390;2023-05-12T06:06:01;98067.81;;;10.33;100.00
53719;BME280;39616;48.872;9.390;2023-05-12T06:08:32;98064.72;;;10.40;100.00
53719;BME280;39616;48.872;9.390;2023-05-12T06:11:02;98069.22;;;10.45;100.00
53719;BME280;39616;48.872;9.390;2023-05-12T06:13:33;98069.13;;;10.50;100.00
53719;BME280;39616;48.872;9.390;2023-05-12T06:16:03;98079.47;;;10.48;100.00
53719;BME280;39616;48.872;9.390;2023-05-12T06:18:34;98073.03;;;10.57;100.00
53719;BME280;39616;48.872;9.390;2023-05-12T06:21:06;98077.56;;;10.62;100.00
53719;BME280;39616;48.872;9.390;2023-05-12T06:23:37;98077.03;;;10.74;100.00
53719;BME280;39616;48.872;9.390;2023-05-12T06:26:07;98078.22;;;10.81;100.00
53719;BME280;39616;48.872;9.390;2023-05-12T06:28:38;98079.81;;;10.82;100.00
53719;BME280;39616;48.872;9.390;2023-05-12T06:31:08;98079.41;;;10.89;100.00
53719;BME280;39616;48.872;9.390;2023-05-12T06:33:39;98083.84;;;10.99;100.00
53719;BME280;39616;48.872;9.390;2023-05-12T06:36:09;98074.34;;;11.10;100.00
53719;BME280;39616;48.872;9.390;2023-05-12T06:38:39;98084.81;;;11.17;100.00
53719;BME280;39616;48.872;9.390;2023-05-12T06:41:10;98086.16;;;11.28;100.00
53719;BME280;39616;48.872;9.390;2023-05-12T06:43:40;98080.69;;;11.42;100.00
53719;BME280;39616;48.872;9.390;2023-05-12T06:46:10;98082.88;;;11.53;100.00
53719;BME280;39616;48.872;9.390;2023-05-12T06:48:41;98082.72;;;11.36;100.00
53719;BME280;39616;48.872;9.390;2023-05-12T06:51:12;98085.38;;;11.50;100.00
53719;BME280;39616;48.872;9.390;2023-05-12T06:53:42;98087.50;;;11.53;100.00
53719;BME280;39616;48.872;9.390;2023-05-12T06:56:12;98086.75;;;11.61;100.00
53719;BME280;39616;48.872;9.390;2023-05-12T06:58:46;98089.50;;;11.70;100.00
53719;BME280;39616;48.872;9.390;2023-05-12T07:01:17;98085.75;;;11.57;100.00
53719;BME280;39616;48.872;9.390;2023-05-12T07:03:47;98082.63;;;11.64;100.00
53719;BME280;39616;48.872;9.390;2023-05-12T07:06:17;98084.31;;;11.59;100.00
53719;BME280;39616;48.872;9.390;2023-05-12T07:08:48;98080.78;;;11.81;100.00
53719;BME280;39616;48.872;9.390;2023-05-12T07:11:18;98084.53;;;11.85;100.00
53719;BME280;39616;48.872;9.390;2023-05-12T07:13:51;98084.63;;;12.03;100.00
53719;BME280;39616;48.872;9.390;2023-05-12T07:16:22;98083.47;;;11.95;100.00
53719;BME280;39616;48.872;9.390;2023-05-12T07:18:52;98090.13;;;11.89;100.00
53719;BME280;39616;48.872;9.390;2023-05-12T07:21:23;98082.50;;;11.91;100.00
53719;BME280;39616;48.872;9.390;2023-05-12T07:23:53;98080.06;;;12.12;100.00
53719;BME280;39616;48.872;9.390;2023-05-12T07:26:23;98086.72;;;12.06;100.00
53719;BME280;39616;48.872;9.390;2023-05-12T07:28:54;98078.97;;;12.22;100.00
53719;BME280;39616;48.872;9.390;2023-05-12T07:31:24;98077.19;;;12.57;100.00
53719;BME280;39616;48.872;9.390;2023-05-12T07:33:55;98070.88;;;12.88;100.00
53719;BME280;39616;48.872;9.390;2023-05-12T07:36:25;98078.34;;;12.73;100.00
53719;BME280;39616;48.872;9.390;2023-05-12T07:38:55;98077.94;;;12.97;100.00
53719;BME280;39616;48.872;9.390;2023-05-12T07:41:26;98078.78;;;13.24;100.00
53719;BME280;39616;48.872;9.390;2023-05-12T07:43:56;98072.72;;;13.27;99.94
53719;BME280;39616;48.872;9.390;2023-05-12T07:46:26;98074.66;;;13.26;98.44
53719;BME280;39616;48.872;9.390;2023-05-12T07:48:56;98080.88;;;13.36;96.04
53719;BME280;39616;48.872;9.390;2023-05-12T07:51:27;98070.63;;;13.50;95.31
53719;BME280;39616;48.872;9.390;2023-05-12T07:53:58;98074.50;;;13.40;97.02
53719;BME280;39616;48.872;9.390;2023-05-12T07:56:29;98068.88;;;13.37;95.74
53719;BME280;39616;48.872;9.390;2023-05-12T07:59:00;98075.09;;;13.28;94.55
53719;BME280;39616;48.872;9.390;2023-05-12T08:01:30;98073.34;;;13.24;95.33
53719;BME280;39616;48.872;9.390;2023-05-12T08:04:00;98072.09;;;13.30;94.87
53719;BME280;39616;48.872;9.390;2023-05-12T08:06:31;98075.25;;;13.15;98.73
53719;BME280;39616;48.872;9.390;2023-05-12T08:09:02;98083.38;;;13.06;98.45
53719;BME280;39616;48.872;9.390;2023-05-12T08:11:32;98078.06;;;12.92;98.93
53719;BME280;39616;48.872;9.390;2023-05-12T08:14:02;98083.97;;;12.68;100.00
53719;BME280;39616;48.872;9.390;2023-05-12T08:16:33;98082.88;;;12.87;100.00
53719;BME280;39616;48.872;9.390;2023-05-12T08:19:03;98081.72;;;12.70;100.00
53719;BME280;39616;48.872;9.390;2023-05-12T08:21:33;98083.28;;;12.54;100.00
53719;BME280;39616;48.872;9.390;2023-05-12T08:24:04;98081.16;;;12.51;100.00
53719;BME280;39616;48.872;9.390;2023-05-12T08:26:34;98076.00;;;12.41;100.00
53719;BME280;39616;48.872;9.390;2023-05-12T08:29:04;98076.66;;;12.38;100.00
53719;BME280;39616;48.872;9.390;2023-05-12T08:31:37;98072.88;;;12.56;100.00
53719;BME280;39616;48.872;9.390;2023-05-12T08:34:07;98083.22;;;12.94;100.00
53719;BME280;39616;48.872;9.390;2023-05-12T08:36:38;98081.97;;;13.17;100.00
53719;BME280;39616;48.872;9.390;2023-05-12T08:39:09;98076.88;;;13.50;97.38
53719;BME280;39616;48.872;9.390;2023-05-12T08:44:25;98077.50;;;13.65;93.91
53719;BME280;39616;48.872;9.390;2023-05-12T08:46:57;98085.56;;;14.17;92.54
53719;BME280;39616;48.872;9.390;2023-05-12T08:49:30;98079.91;;;14.78;87.34
53719;BME280;39616;48.872;9.390;2023-05-12T08:52:01;98074.34;;;15.37;81.72
53719;BME280;39616;48.872;9.390;2023-05-12T08:54:32;98079.34;;;15.56;82.04
53719;BME280;39616;48.872;9.390;2023-05-12T08:57:03;98092.34;;;15.38;82.93
53719;BME280;39616;48.872;9.390;2023-05-12T08:59:35;98081.41;;;16.13;77.11
53719;BME280;39616;48.872;9.390;2023-05-12T09:02:06;98071.63;;;16.73;76.88
53719;BME280;39616;48.872;9.390;2023-05-12T09:04:38;98077.16;;;15.70;77.55
53719;BME280;39616;48.872;9.390;2023-05-12T09:07:09;98072.19;;;16.30;77.06
53719;BME280;39616;48.872;9.390;2023-05-12T09:09:42;98073.75;;;16.18;76.89
53719;BME280;39616;48.872;9.390;2023-05-12T09:12:15;98083.28;;;16.00;75.33
53719;BME280;39616;48.872;9.390;2023-05-12T09:14:53;98081.03;;;15.69;77.64
53719;BME280;39616;48.872;9.390;2023-05-12T09:17:27;98095.56;;;14.60;81.66
53719;BME280;39616;48.872;9.390;2023-05-12T09:19:57;98100.75;;;14.44;83.12
53719;BME280;39616;48.872;9.390;2023-05-12T09:22:31;98086.97;;;13.67;86.52
53719;BME280;39616;48.872;9.390;2023-05-12T09:25:17;98087.13;;;13.45;89.45
53719;BME280;39616;48.872;9.390;2023-05-12T09:27:53;98091.63;;;13.41;90.14
53719;BME280;39616;48.872;9.390;2023-05-12T09:30:30;98091.63;;;13.49;95.49
53719;BME280;39616;48.872;9.390;2023-05-12T09:33:20;98099.63;;;13.28;99.44
53719;BME280;39616;48.872;9.390;2023-05-12T09:35:51;98094.94;;;13.20;100.00
53719;BME280;39616;48.872;9.390;2023-05-12T09:38:22;98096.19;;;12.97;100.00
53719;BME280;39616;48.872;9.390;2023-05-12T09:40:52;98093.75;;;12.87;100.00
53719;BME280;39616;48.872;9.390;2023-05-12T09:43:22;98098.09;;;12.88;100.00
53719;BME280;39616;48.872;9.390;2023-05-12T09:45:53;98103.09;;;12.54;100.00
53719;BME280;39616;48.872;9.390;2023-05-12T09:48:24;98101.06;;;12.60;100.00
53719;BME280;39616;48.872;9.390;2023-05-12T09:50:54;98094.84;;;12.68;100.00
53719;BME280;39616;48.872;9.390;2023-05-12T09:53:25;98097.44;;;12.82;100.00
53719;BME280;39616;48.872;9.390;2023-05-12T09:55:55;98100.91;;;12.74;100.00
53719;BME280;39616;48.872;9.390;2023-05-12T09:58:26;98095.66;;;12.77;100.00
53719;BME280;39616;48.872;9.390;2023-05-12T10:00:57;98094.56;;;12.87;100.00
53719;BME280;39616;48.872;9.390;2023-05-12T10:03:29;98100.22;;;13.08;100.00
53719;BME280;39616;48.872;9.390;2023-05-12T10:06:02;98100.84;;;13.14;100.00
53719;BME280;39616;48.872;9.390;2023-05-12T10:08:53;98092.09;;;13.43;100.00
53719;BME280;39616;48.872;9.390;2023-05-12T10:11:28;98096.28;;;13.40;100.00
53719;BME280;39616;48.872;9.390;2023-05-12T10:13:58;98098.66;;;13.42;100.00
53719;BME280;39616;48.872;9.390;2023-05-12T10:16:29;98098.34;;;13.43;100.00
53719;BME280;39616;48.872;9.390;2023-05-12T10:19:02;98099.63;;;13.46;100.00
53719;BME280;39616;48.872;9.390;2023-05-12T10:21:33;98094.81;;;13.43;100.00
53719;BME280;39616;48.872;9.390;2023-05-12T10:24:05;98095.63;;;13.43;100.00
53719;BME280;39616;48.872;9.390;2023-05-12T10:26:36;98091.78;;;13.53;100.00
53719;BME280;39616;48.872;9.390;2023-05-12T10:29:09;98101.06;;;13.61;100.00
53719;BME280;39616;48.872;9.390;2023-05-12T10:31:43;98099.78;;;13.67;100.00
53719;BME280;39616;48.872;9.390;2023-05-12T10:34:16;98104.59;;;13.61;100.00
53719;BME280;39616;48.872;9.390;2023-05-12T10:36:50;98102.69;;;13.53;100.00
53719;BME280;39616;48.872;9.390;2023-05-12T10:39:30;98106.34;;;13.57;100.00
53719;BME280;39616;48.872;9.390;2023-05-12T10:42:09;98101.56;;;13.45;100.00
53719;BME280;39616;48.872;9.390;2023-05-12T10:44:55;98091.94;;;13.57;100.00
53719;BME280;39616;48.872;9.390;2023-05-12T10:47:44;98097.22;;;13.53;100.00
53719;BME280;39616;48.872;9.390;2023-05-12T10:50:25;98091.47;;;13.46;100.00
53719;BME280;39616;48.872;9.390;2023-05-12T10:52:56;98100.28;;;13.51;100.00
53719;BME280;39616;48.872;9.390;2023-05-12T10:55:34;98099.28;;;13.47;100.00
53719;BME280;39616;48.872;9.390;2023-05-12T10:58:08;98110.34;;;13.25;100.00
53719;BME280;39616;48.872;9.390;2023-05-12T11:00:49;98117.34;;;13.00;100.00
53719;BME280;39616;48.872;9.390;2023-05-12T11:03:23;98109.00;;;13.05;100.00
53719;BME280;39616;48.872;9.390;2023-05-12T11:05:58;98113.38;;;13.15;100.00
53719;BME280;39616;48.872;9.390;2023-05-12T11:08:30;98108.09;;;13.36;100.00
53719;BME280;39616;48.872;9.390;2023-05-12T11:11:01;98110.03;;;13.44;100.00
53719;BME280;39616;48.872;9.390;2023-05-12T11:13:31;98114.50;;;13.22;100.00
53719;BME280;39616;48.872;9.390;2023-05-12T11:16:01;98102.19;;;13.51;100.00
53719;BME280;39616;48.872;9.390;2023-05-12T11:18:31;98110.34;;;13.77;100.00
53719;BME280;39616;48.872;9.390;2023-05-12T11:21:08;98110.75;;;14.14;95.19
53719;BME280;39616;48.872;9.390;2023-05-12T11:23:39;98116.59;;;14.59;92.00
53719;BME280;39616;48.872;9.390;2023-05-12T11:26:16;98114.44;;;14.73;89.36
53719;BME280;39616;48.872;9.390;2023-05-12T11:28:47;98106.69;;;15.05;85.88
53719;BME280;39616;48.872;9.390;2023-05-12T11:31:18;98108.81;;;15.29;84.95
53719;BME280;39616;48.872;9.390;2023-05-12T11:33:49;98103.59;;;15.57;80.10
53719;BME280;39616;48.872;9.390;2023-05-12T11:36:19;98096.63;;;15.68;78.96
53719;BME280;39616;48.872;9.390;2023-05-12T11:38:50;98096.19;;;15.79;77.00
53719;BME280;39616;48.872;9.390;2023-05-12T11:41:39;98099.66;;;15.88;79.40
53719;BME280;39616;48.872;9.390;2023-05-12T11:44:16;98097.81;;;16.13;78.20
53719;BME280;39616;48.872;9.390;2023-05-12T11:47:10;98094.38;;;16.16;78.12
53719;BME280;39616;48.872;9.390;2023-05-12T11:49:51;98103.69;;;16.03;75.75
53719;BME280;39616;48.872;9.390;2023-05-12T11:52:23;98101.22;;;16.10;76.69
53719;BME280;39616;48.872;9.390;2023-05-12T11:54:58;98106.84;;;15.92;75.88
53719;BME280;39616;48.872;9.390;2023-05-12T11:57:30;98114.06;;;15.55;75.40
53719;BME280;39616;48.872;9.390;2023-05-12T12:00:05;98113.03;;;15.68;77.35
53719;BME280;39616;48.872;9.390;2023-05-12T12:02:37;98107.41;;;15.65;78.22
53719;BME280;39616;48.872;9.390;2023-05-12T12:05:18;98116.25;;;15.83;78.10
53719;BME280;39616;48.872;9.390;2023-05-12T12:07:49;98123.50;;;15.16;79.24
53719;BME280;39616;48.872;9.390;2023-05-12T12:10:20;98123.47;;;15.25;79.90
53719;BME280;39616;48.872;9.390;2023-05-12T12:12:51;98125.13;;;15.38;83.03
53719;BME280;39616;48.872;9.390;2023-05-12T12:15:21;98132.56;;;14.78;83.58
53719;BME280;39616;48.872;9.390;2023-05-12T12:17:51;98132.78;;;14.64;83.64
53719;BME280;39616;48.872;9.390;2023-05-12T12:20:22;98132.47;;;14.66;86.38
53719;BME280;39616;48.872;9.390;2023-05-12T12:22:54;98132.81;;;14.56;86.12
53719;BME280;39616;48.872;9.390;2023-05-12T12:25:24;98138.53;;;14.71;90.35
53719;BME280;39616;48.872;9.390;2023-05-12T12:27:55;98139.47;;;14.76;88.33
53719;BME280;39616;48.872;9.390;2023-05-12T12:30:26;98132.84;;;14.85;85.81
53719;BME280;39616;48.872;9.390;2023-05-12T12:32:56;98137.69;;;14.80;84.53
53719;BME280;39616;48.872;9.390;2023-05-12T12:35:26;98131.41;;;14.79;84.97
53719;BME280;39616;48.872;9.390;2023-05-12T12:37:57;98136.72;;;14.84;85.26
53719;BME280;39616;48.872;9.390;2023-05-12T12:40:27;98146.25;;;14.61;86.23
53719;BME280;39616;48.872;9.390;2023-05-12T12:42:58;98140.38;;;14.50;85.69
53719;BME280;39616;48.872;9.390;2023-05-12T12:45:28;98142.31;;;14.41;89.16
53719;BME280;39616;48.872;9.390;2023-05-12T12:47:58;98149.91;;;14.18;94.71
53719;BME280;39616;48.872;9.390;2023-05-12T12:50:29;98142.09;;;13.73;98.51
53719;BME280;39616;48.872;9.390;2023-05-12T12:52:59;98153.16;;;13.42;100.00
53719;BME280;39616;48.872;9.390;2023-05-12T12:55:29;98144.63;;;13.26;100.00
53719;BME280;39616;48.872;9.390;2023-05-12T12:58:00;98151.50;;;13.23;100.00
53719;BME280;39616;48.872;9.390;2023-05-12T13:00:30;98149.59;;;13.24;100.00
53719;BME280;39616;48.872;9.390;2023-05-12T13:03:01;98143.50;;;13.27;100.00
53719;BME280;39616;48.872;9.390;2023-05-12T13:05:31;98144.81;;;13.29;100.00
53719;BME280;39616;48.872;9.390;2023-05-12T13:08:01;98152.00;;;13.34;100.00
53719;BME280;39616;48.872;9.390;2023-05-12T13:10:32;98141.78;;;13.48;100.00
53719;BME280;39616;48.872;9.390;2023-05-12T13:13:03;98145.94;;;13.63;100.00
53719;BME280;39616;48.872;9.390;2023-05-12T13:15:33;98142.25;;;13.76;100.00
53719;BME280;39616;48.872;9.390;2023-05-12T13:18:03;98142.25;;;13.76;100.00
53719;BME280;39616;48.872;9.390;2023-05-12T13:20:34;98145.44;;;13.87;96.18
53719;BME280;39616;48.872;9.390;2023-05-12T13:23:05;98144.34;;;13.88;91.08
53719;BME280;39616;48.872;9.390;2023-05-12T13:25:35;98149.13;;;14.00;88.07